Time;durP1;ratioP1;P1;durP2;ratioP2;P2;SDS_P1;SDS_P2;PMS_P1;PMS_P2;Temp;Humidity;BMP_temperature;BMP_pressure;BME280_temperature;BME280_humidity;BME280_pressure;Samples;Min_cycle;Max_cycle;Signal;HPM_P1;HPM_P2
2023/08/22 00:00:31;;;;;;;9.38;3.40;;;;;;;20.26;79.14;101832.75;3614727;39;20086;-63
2023/08/22 00:02:58;;;;;;;4.75;3.42;;;;;;;20.22;79.54;101804.00;3604773;39;20324;-62
2023/08/22 00:05:25;;;;;;;4.95;4.13;;;;;;;20.27;79.60;101809.94;3617622;39;20068;-63
2023/08/22 00:07:51;;;;;;;6.13;3.40;;;;;;;20.34;79.40;101827.50;3615985;39;20063;-63
2023/08/22 00:10:18;;;;;;;6.20;3.75;;;;;;;20.32;79.03;101833.06;3615127;39;20089;-62
2023/08/22 00:12:44;;;;;;;9.70;3.92;;;;;;;20.33;79.14;101831.22;3614436;39;20600;-62
2023/08/22 00:15:12;;;;;;;7.95;3.50;;;;;;;20.31;79.48;101831.34;3615573;39;20057;-63
2023/08/22 00:17:40;;;;;;;6.32;4.20;;;;;;;20.34;78.95;101835.69;3614887;39;20315;-63
2023/08/22 00:20:10;;;;;;;6.97;4.00;;;;;;;20.33;79.13;101826.63;3612425;39;20055;-62
2023/08/22 00:22:37;;;;;;;6.00;3.97;;;;;;;20.32;79.12;101826.75;3612759;39;20050;-63
2023/08/22 00:25:04;;;;;;;7.78;4.20;;;;;;;20.17;79.18;101813.47;3613993;39;20042;-63
2023/08/22 00:27:30;;;;;;;5.75;3.60;;;;;;;20.18;79.71;101804.25;3613486;39;20162;-63
2023/08/22 00:29:57;;;;;;;5.95;3.92;;;;;;;20.27;79.72;101824.44;3614400;39;20058;-63
2023/08/22 00:32:24;;;;;;;6.43;3.83;;;;;;;20.28;79.15;101826.16;3618858;39;20506;-63
2023/08/22 00:34:49;;;;;;;6.78;3.92;;;;;;;20.26;79.10;101817.22;3613231;39;20055;-62
2023/08/22 00:37:15;;;;;;;7.47;4.07;;;;;;;20.26;79.85;101832.75;3612433;39;20366;-63
2023/08/22 00:39:41;;;;;;;4.75;3.58;;;;;;;20.07;79.95;101782.47;3615040;39;20074;-63
2023/08/22 00:42:07;;;;;;;6.55;4.35;;;;;;;20.06;80.16;101783.47;3612849;39;20058;-63
2023/08/22 00:44:32;;;;;;;7.38;4.18;;;;;;;20.23;79.96;101809.31;3615990;39;20311;-62
2023/08/22 00:46:59;;;;;;;6.47;3.78;;;;;;;20.18;80.29;101817.91;3615296;39;20056;-63
2023/08/22 00:49:26;;;;;;;5.68;3.70;;;;;;;19.62;80.98;101730.84;3617116;39;20131;-63
2023/08/22 00:51:53;;;;;;;7.45;3.60;;;;;;;20.14;80.42;101821.91;3613604;39;20127;-63
2023/08/22 00:54:24;;;;;;;4.85;3.45;;;;;;;20.15;81.03;101812.72;3614432;39;20627;-63
2023/08/22 00:56:51;;;;;;;5.05;3.55;;;;;;;20.16;80.53;101805.38;3615092;39;20054;-63
2023/08/22 00:59:17;;;;;;;6.88;4.10;;;;;;;20.15;81.42;101812.72;3615880;39;20093;-63
2023/08/22 01:01:42;;;;;;;6.95;3.75;;;;;;;20.10;80.86;101812.22;3615512;39;20099;-63
2023/08/22 01:04:08;;;;;;;6.40;3.90;;;;;;;20.07;81.52;101801.56;3614881;39;20071;-63
2023/08/22 01:07:07;;;;;;;7.15;3.53;;;;;;;20.05;81.94;101806.31;3616377;39;20062;-63
2023/08/22 01:09:44;;;;;;;11.05;3.70;;;;;;;20.02;81.31;101798.41;3615347;39;20051;-63
2023/08/22 01:12:32;;;;;;;4.82;3.53;;;;;;;19.96;81.57;101801.66;3613852;39;20073;-63
2023/08/22 01:15:26;;;;;;;6.07;3.30;;;;;;;19.94;81.22;101809.97;3614779;39;20107;-63
2023/08/22 01:17:54;;;;;;;5.85;3.20;;;;;;;19.96;81.79;101812.56;3607787;39;20051;-62
2023/08/22 01:20:22;;;;;;;6.15;3.25;;;;;;;19.91;81.21;101810.22;3608970;39;20292;-63
2023/08/22 01:22:47;;;;;;;7.18;3.30;;;;;;;19.90;82.04;101810.38;3614659;39;20059;-63
2023/08/22 01:25:13;;;;;;;6.45;2.80;;;;;;;19.90;81.55;101815.81;3614282;39;20051;-63
2023/08/22 01:28:27;;;;;;;5.15;3.28;;;;;;;19.88;80.54;101806.91;3615595;39;20043;-63
2023/08/22 01:31:21;;;;;;;6.20;3.38;;;;;;;19.87;80.43;101805.19;3616407;39;20057;-62
2023/08/22 01:33:58;;;;;;;7.82;3.88;;;;;;;19.85;80.13;101801.69;3614328;39;20385;-63
2023/08/22 01:36:26;;;;;;;5.70;3.72;;;;;;;19.85;80.26;101793.50;3613065;39;20059;-62
2023/08/22 01:38:53;;;;;;;5.38;3.83;;;;;;;19.83;79.74;101799.13;3614279;39;20703;-63
2023/08/22 01:41:22;;;;;;;6.03;4.35;;;;;;;19.71;80.43;101779.19;3616852;39;20119;-63
2023/08/22 01:43:50;;;;;;;4.90;4.38;;;;;;;19.87;79.72;101797.00;3614445;39;20096;-63
2023/08/22 01:46:16;;;;;;;8.27;4.47;;;;;;;19.86;79.34;101796.13;3614688;39;20099;-62
2023/08/22 01:48:41;;;;;;;9.07;5.10;;;;;;;19.79;79.73;101786.75;3614571;39;20070;-63
2023/08/22 01:51:07;;;;;;;8.90;5.20;;;;;;;19.79;79.69;101794.94;3614264;39;20112;-62
2023/08/22 01:53:32;;;;;;;8.27;5.13;;;;;;;19.82;80.20;101796.50;3612095;39;20153;-63
2023/08/22 01:55:59;;;;;;;8.50;5.40;;;;;;;19.27;80.35;101701.13;3616391;39;20066;-62
2023/08/22 01:58:25;;;;;;;9.45;5.00;;;;;;;19.81;80.21;101792.91;3615853;39;20055;-63
2023/08/22 02:00:51;;;;;;;8.48;5.32;;;;;;;19.84;80.55;101789.06;3614735;39;20086;-62
2023/08/22 02:03:16;;;;;;;8.18;5.18;;;;;;;19.82;81.03;101794.66;3616405;39;20059;-62
2023/08/22 02:05:42;;;;;;;6.93;5.00;;;;;;;19.80;80.86;101795.78;3614613;39;20058;-63
2023/08/22 02:08:08;;;;;;;8.90;5.30;;;;;;;19.74;81.49;101789.00;3612320;39;20058;-63
2023/08/22 02:10:33;;;;;;;7.82;5.32;;;;;;;19.73;81.74;101786.38;3614458;39;20106;-62
2023/08/22 02:12:59;;;;;;;7.38;4.88;;;;;;;19.70;81.38;101791.13;3612321;39;20058;-63
2023/08/22 02:15:25;;;;;;;7.15;5.05;;;;;;;19.70;82.37;101782.06;3616568;39;20066;-63
2023/08/22 02:17:51;;;;;;;6.95;5.10;;;;;;;19.68;82.17;101784.91;3613679;39;20363;-62
2023/08/22 02:20:19;;;;;;;6.35;4.45;;;;;;;19.63;82.69;101773.50;3614290;39;20062;-63
2023/08/22 02:22:45;;;;;;;6.70;4.50;;;;;;;19.66;81.99;101770.56;3615362;39;20046;-63
2023/08/22 02:25:11;;;;;;;8.80;4.82;;;;;;;19.62;82.25;101774.50;3614142;39;20070;-62
2023/08/22 02:27:37;;;;;;;7.38;4.35;;;;;;;19.56;82.34;101776.88;3613903;39;20399;-63
2023/08/22 02:30:08;;;;;;;9.13;4.55;;;;;;;19.52;82.76;101770.81;3613531;39;20039;-62
2023/08/22 02:32:33;;;;;;;10.52;4.70;;;;;;;19.47;83.01;101775.78;3615905;39;20121;-62
2023/08/22 02:34:59;;;;;;;9.70;4.80;;;;;;;19.42;83.04;101772.59;3613414;39;20070;-63
2023/08/22 02:37:25;;;;;;;6.65;4.13;;;;;;;19.40;82.60;101763.66;3616211;39;20066;-62
2023/08/22 02:39:50;;;;;;;7.65;4.85;;;;;;;19.24;83.01;101740.41;3614222;39;20050;-62
2023/08/22 02:42:16;;;;;;;7.57;5.18;;;;;;;19.39;82.79;101764.69;3615504;39;20099;-63
2023/08/22 02:44:42;;;;;;;8.38;5.05;;;;;;;19.35;83.61;101766.78;3617253;39;20058;-63
2023/08/22 02:47:08;;;;;;;8.10;5.28;;;;;;;19.35;83.62;101766.78;3612200;39;20340;-63
2023/08/22 02:49:34;;;;;;;9.80;5.45;;;;;;;19.34;83.49;101775.09;3616259;39;20060;-63
2023/08/22 02:51:59;;;;;;;8.77;5.05;;;;;;;19.32;83.35;101766.19;3612963;39;20078;-63
2023/08/22 02:54:25;;;;;;;9.68;5.60;;;;;;;19.04;83.96;101719.44;3612226;39;20058;-63
2023/08/22 02:56:51;;;;;;;8.77;5.28;;;;;;;19.31;84.27;101761.72;3616097;39;20373;-62
2023/08/22 02:59:19;;;;;;;9.10;5.20;;;;;;;19.33;83.92;101770.63;3613917;39;20257;-63
2023/08/22 03:01:44;;;;;;;8.75;4.85;;;;;;;19.29;84.15;101767.31;3615178;39;20042;-63
2023/08/22 03:04:10;;;;;;;9.88;5.25;;;;;;;19.29;83.90;101763.72;3611356;39;20070;-62
2023/08/22 03:06:36;;;;;;;7.30;5.07;;;;;;;19.29;84.83;101761.84;3611479;39;20073;-62
2023/08/22 03:09:03;;;;;;;9.57;5.28;;;;;;;19.21;83.63;101757.03;3614961;39;20050;-63
2023/08/22 03:11:28;;;;;;;19.42;5.70;;;;;;;19.31;83.68;101767.16;3613496;39;20100;-62
2023/08/22 03:13:54;;;;;;;9.75;5.60;;;;;;;19.31;83.46;101768.03;3608884;39;20082;-62
2023/08/22 03:16:20;;;;;;;11.35;5.72;;;;;;;19.34;83.48;101772.38;3615400;39;20054;-63
2023/08/22 03:18:46;;;;;;;9.13;5.43;;;;;;;19.35;83.85;101777.69;3612877;39;20061;-63
2023/08/22 03:21:12;;;;;;;10.98;5.50;;;;;;;19.35;83.75;101771.38;3614452;39;20051;-63
2023/08/22 03:23:37;;;;;;;8.05;5.28;;;;;;;18.93;82.94;101703.09;3612249;39;20326;-63
2023/08/22 03:26:03;;;;;;;6.90;5.15;;;;;;;19.32;83.39;101771.66;3614730;39;20059;-62
2023/08/22 03:28:29;;;;;;;8.27;5.50;;;;;;;19.32;82.61;101768.91;3616309;39;20049;-63
2023/08/22 03:31:03;;;;;;;9.60;5.50;;;;;;;19.30;82.61;101760.84;3615043;39;20132;-63
2023/08/22 03:33:31;;;;;;;11.38;5.22;;;;;;;19.29;82.43;101761.00;3614376;39;20052;-64
2023/08/22 03:35:57;;;;;;;7.72;5.60;;;;;;;19.28;82.77;101765.56;3615410;39;20046;-63
2023/08/22 03:38:25;;;;;;;10.68;6.40;;;;;;;19.24;82.04;101767.69;3613871;39;20070;-64
2023/08/22 03:40:52;;;;;;;10.30;6.28;;;;;;;19.21;82.92;101764.34;3615622;39;20174;-63
2023/08/22 03:43:19;;;;;;;8.13;6.07;;;;;;;19.17;83.07;101766.47;3613871;39;20154;-64
2023/08/22 03:45:45;;;;;;;11.23;6.50;;;;;;;19.17;82.59;101765.59;3616177;39;20047;-64
2023/08/22 03:48:12;;;;;;;9.10;6.60;;;;;;;19.09;82.50;101752.59;3612918;39;20067;-64
2023/08/22 03:50:42;;;;;;;12.18;6.97;;;;;;;19.12;83.29;101754.19;3612807;39;20067;-63
2023/08/22 03:53:10;;;;;;;8.80;6.63;;;;;;;19.04;83.00;101746.69;3617181;39;20109;-63
2023/08/22 03:55:36;;;;;;;10.23;7.05;;;;;;;19.07;82.24;101754.59;3615312;39;20068;-63
2023/08/22 03:58:02;;;;;;;9.70;6.80;;;;;;;18.28;82.60;101623.09;3613920;39;20086;-63
2023/08/22 04:00:28;;;;;;;10.10;7.07;;;;;;;19.05;83.06;101753.00;3615285;39;20063;-63
2023/08/22 04:02:58;;;;;;;9.35;6.75;;;;;;;18.79;83.14;101729.63;3613482;39;20050;-63
2023/08/22 04:05:25;;;;;;;10.38;7.05;;;;;;;18.97;82.56;101756.38;3613538;39;20407;-63
2023/08/22 04:07:52;;;;;;;9.73;6.35;;;;;;;18.91;83.82;101752.28;3614864;39;20061;-64
2023/08/22 04:10:19;;;;;;;8.80;7.35;;;;;;;18.86;83.60;101759.94;3616274;39;20062;-64
2023/08/22 04:12:46;;;;;;;13.57;7.32;;;;;;;18.84;83.21;101761.06;3616171;39;20051;-64
2023/08/22 04:15:13;;;;;;;11.77;7.82;;;;;;;18.82;83.25;101763.94;3614352;39;20074;-64
2023/08/22 04:17:42;;;;;;;8.55;7.45;;;;;;;18.81;83.22;101761.31;3615560;39;20059;-64
2023/08/22 04:20:10;;;;;;;8.70;7.00;;;;;;;18.78;82.90;101757.88;3611437;39;20057;-64
2023/08/22 04:22:40;;;;;;;10.43;7.82;;;;;;;18.74;83.49;101755.50;3613844;39;20385;-64
2023/08/22 04:25:06;;;;;;;9.55;7.07;;;;;;;18.75;83.74;101749.94;3613468;39;20050;-64
2023/08/22 04:27:32;;;;;;;13.50;7.93;;;;;;;18.67;83.53;101743.34;3617331;39;20058;-64
2023/08/22 04:29:59;;;;;;;11.15;8.00;;;;;;;18.69;83.26;101753.13;3613256;39;20078;-64
2023/08/22 04:32:25;;;;;;;10.02;8.02;;;;;;;18.33;83.60;101697.06;3614714;39;20051;-65
2023/08/22 04:34:51;;;;;;;13.70;9.07;;;;;;;18.58;84.18;101747.69;3612230;39;20100;-65
2023/08/22 04:37:16;;;;;;;10.27;8.27;;;;;;;18.54;85.27;101746.22;3612189;39;20065;-65
2023/08/22 04:39:42;;;;;;;10.95;8.57;;;;;;;18.48;85.97;101749.41;3613290;39;20058;-65
2023/08/22 04:42:07;;;;;;;15.77;9.25;;;;;;;18.46;85.32;101744.13;3613964;39;20122;-65
2023/08/22 04:44:33;;;;;;;11.02;8.90;;;;;;;18.38;86.02;101737.53;3615897;39;20047;-65
2023/08/22 04:46:59;;;;;;;12.65;8.80;;;;;;;18.41;86.79;101754.50;3615509;39;20058;-65
2023/08/22 04:49:24;;;;;;;13.55;8.55;;;;;;;18.20;86.65;101718.97;3614145;39;20050;-65
2023/08/22 04:51:50;;;;;;;12.05;8.48;;;;;;;18.36;86.88;101747.69;3614584;39;20090;-65
2023/08/22 04:54:16;;;;;;;9.68;8.13;;;;;;;18.36;87.10;101753.13;3614274;39;20062;-65
2023/08/22 04:56:41;;;;;;;12.27;8.40;;;;;;;18.34;87.13;101758.72;3611254;39;20054;-65
2023/08/22 04:59:08;;;;;;;13.18;8.40;;;;;;;18.31;87.47;101748.91;3613993;39;20151;-65
2023/08/22 05:01:34;;;;;;;11.57;8.80;;;;;;;18.30;87.09;101757.22;3612221;39;20608;-65
2023/08/22 05:04:00;;;;;;;11.63;8.63;;;;;;;18.26;87.99;101759.31;3612797;39;20050;-66
2023/08/22 05:06:26;;;;;;;12.05;8.95;;;;;;;18.28;88.22;101760.06;3613039;39;20054;-65
2023/08/22 05:08:51;;;;;;;11.70;8.75;;;;;;;18.29;87.43;101764.50;3613583;39;20448;-65
2023/08/22 05:11:17;;;;;;;10.88;8.82;;;;;;;18.31;87.90;101762.53;3611409;39;20393;-65
2023/08/22 05:13:42;;;;;;;11.77;9.23;;;;;;;18.35;88.10;101759.56;3609942;39;20065;-65
2023/08/22 05:16:08;;;;;;;12.60;9.85;;;;;;;18.33;87.29;101752.41;3613294;39;20077;-65
2023/08/22 05:18:34;;;;;;;11.43;9.50;;;;;;;18.36;87.70;101761.28;3611657;39;20051;-64
2023/08/22 05:20:59;;;;;;;12.50;10.00;;;;;;;18.36;87.12;101762.16;3610930;39;20385;-64
2023/08/22 05:23:25;;;;;;;12.68;9.68;;;;;;;18.37;87.27;101758.47;3614625;39;20065;-64
2023/08/22 05:25:51;;;;;;;15.90;10.25;;;;;;;18.38;87.98;101759.31;3612655;39;20065;-65
2023/08/22 05:28:16;;;;;;;14.00;9.88;;;;;;;18.41;87.49;101759.06;3612386;39;20354;-65
2023/08/22 05:30:42;;;;;;;14.40;10.18;;;;;;;18.35;87.30;101735.94;3613346;39;20058;-65
2023/08/22 05:33:08;;;;;;;15.70;12.23;;;;;;;18.49;87.44;101754.75;3611800;39;20633;-64
2023/08/22 05:35:33;;;;;;;14.65;11.20;;;;;;;18.54;87.32;101755.25;3618166;39;20409;-65
2023/08/22 05:37:59;;;;;;;13.05;9.30;;;;;;;18.61;86.71;101757.47;3611492;39;20104;-65
2023/08/22 05:40:25;;;;;;;13.98;8.95;;;;;;;18.45;86.39;101725.16;3614325;39;20453;-65
2023/08/22 05:42:52;;;;;;;11.20;8.77;;;;;;;18.71;86.06;101745.72;3612138;39;20050;-65
2023/08/22 05:45:18;;;;;;;10.93;8.60;;;;;;;18.77;86.27;101753.44;3613593;39;20301;-65
2023/08/22 05:47:44;;;;;;;11.60;9.13;;;;;;;18.81;85.59;101744.97;3615354;39;20297;-64
2023/08/22 05:50:11;;;;;;;9.93;8.75;;;;;;;18.55;85.26;101697.09;3609001;39;20139;-65
2023/08/22 05:52:36;;;;;;;12.88;8.82;;;;;;;18.90;85.04;101753.28;3616257;39;20301;-65
2023/08/22 05:55:03;;;;;;;11.25;8.10;;;;;;;18.98;85.45;101763.53;3611301;39;20065;-65
2023/08/22 05:57:29;;;;;;;10.93;8.40;;;;;;;19.06;85.22;101766.50;3615551;39;20058;-65
2023/08/22 05:59:55;;;;;;;11.65;8.75;;;;;;;19.12;85.01;101765.97;3611172;39;20304;-65
2023/08/22 06:02:21;;;;;;;11.80;8.63;;;;;;;19.18;85.01;101764.59;3605874;39;20107;-65
2023/08/22 06:04:47;;;;;;;14.45;10.38;;;;;;;19.18;84.91;101760.00;3611921;39;20054;-65
2023/08/22 06:07:13;;;;;;;13.55;10.32;;;;;;;19.27;84.57;101768.44;3613218;39;20082;-64
2023/08/22 06:09:39;;;;;;;12.77;10.35;;;;;;;19.36;84.21;101778.56;3611046;39;20058;-64
2023/08/22 06:12:06;;;;;;;13.40;11.40;;;;;;;19.44;83.39;101781.50;3612892;39;20057;-64
2023/08/22 06:14:32;;;;;;;15.50;11.82;;;;;;;19.50;83.33;101786.44;3613449;39;20308;-64
2023/08/22 06:16:58;;;;;;;15.75;11.70;;;;;;;19.56;82.46;101779.59;3602267;39;20078;-64
2023/08/22 06:19:24;;;;;;;13.38;11.77;;;;;;;19.63;82.28;101781.69;3614117;39;20147;-64
2023/08/22 06:21:50;;;;;;;12.93;11.35;;;;;;;19.70;81.44;101780.19;3613027;39;20421;-64
2023/08/22 06:24:16;;;;;;;14.63;11.00;;;;;;;19.77;80.70;101780.53;3613813;39;20086;-64
2023/08/22 06:26:42;;;;;;;12.00;10.52;;;;;;;19.71;80.52;101756.50;3613222;39;20070;-64
2023/08/22 06:29:08;;;;;;;11.65;9.45;;;;;;;19.93;80.48;101782.81;3610586;39;20067;-66
2023/08/22 06:31:34;;;;;;;12.05;8.65;;;;;;;20.01;79.49;101783.00;3615027;39;20302;-66
2023/08/22 06:34:00;;;;;;;11.68;8.77;;;;;;;20.10;79.42;101779.47;3612827;39;20374;-66
2023/08/22 06:36:26;;;;;;;10.75;7.70;;;;;;;20.06;78.22;101766.25;3614945;39;20075;-67
2023/08/22 06:38:53;;;;;;;9.23;7.03;;;;;;;20.29;77.58;101783.34;3611806;39;20090;-65
2023/08/22 06:41:19;;;;;;;10.02;7.80;;;;;;;20.40;77.29;101786.00;3612322;39;20393;-65
2023/08/22 06:43:46;;;;;;;10.30;6.72;;;;;;;20.51;75.86;101776.84;3613796;39;20124;-66
2023/08/22 06:46:12;;;;;;;8.27;6.13;;;;;;;20.62;74.86;101791.31;3611485;39;20055;-65
2023/08/22 06:48:38;;;;;;;9.40;5.95;;;;;;;20.76;74.84;101795.53;3612267;39;20150;-66
2023/08/22 06:51:03;;;;;;;10.55;5.63;;;;;;;20.91;74.50;101801.50;3612095;39;20067;-66
2023/08/22 06:53:29;;;;;;;6.78;4.93;;;;;;;21.04;72.21;101796.66;3611854;39;20055;-66
2023/08/22 06:55:56;;;;;;;6.65;4.30;;;;;;;21.18;70.71;101802.72;3613581;39;20055;-66
2023/08/22 06:58:21;;;;;;;8.27;4.38;;;;;;;21.33;70.16;101813.13;3613892;39;20067;-66
2023/08/22 07:00:48;;;;;;;5.13;3.45;;;;;;;21.51;68.99;101820.69;3612587;39;20062;-66
2023/08/22 07:03:14;;;;;;;7.28;3.60;;;;;;;21.69;68.47;101826.31;3613514;39;20089;-66
2023/08/22 07:05:39;;;;;;;6.05;3.38;;;;;;;21.77;66.73;101804.56;3614249;39;20058;-66
2023/08/22 07:08:07;;;;;;;3.75;2.90;;;;;;;22.08;66.02;101829.06;3614719;39;20196;-66
2023/08/22 07:10:34;;;;;;;4.40;2.97;;;;;;;22.33;64.80;101827.59;3611361;39;20120;-66
2023/08/22 07:13:01;;;;;;;4.85;2.75;;;;;;;22.52;61.93;101827.56;3612833;39;20043;-64
2023/08/22 07:15:28;;;;;;;3.92;2.22;;;;;;;22.69;61.47;101825.91;3613363;39;20053;-64
2023/08/22 07:17:53;;;;;;;4.57;2.17;;;;;;;22.55;59.59;101777.06;3613462;39;20058;-64
2023/08/22 07:20:19;;;;;;;2.80;1.88;;;;;;;23.00;57.33;101828.44;3610717;39;20058;-64
2023/08/22 07:22:45;;;;;;;1.92;1.27;;;;;;;23.11;56.28;101822.72;3613033;39;20059;-64
2023/08/22 07:25:11;;;;;;;4.13;1.83;;;;;;;23.25;55.64;101835.06;3612601;39;20062;-66
2023/08/22 07:27:37;;;;;;;1.90;1.48;;;;;;;23.11;55.23;101784.34;3605373;39;20177;-66
2023/08/22 07:30:03;;;;;;;2.53;1.77;;;;;;;23.44;55.81;101834.09;3613018;39;20065;-65
2023/08/22 07:32:29;;;;;;;4.50;2.50;;;;;;;23.52;55.63;101828.69;3616688;39;20051;-65
2023/08/22 07:34:56;;;;;;;4.32;2.80;;;;;;;23.65;55.72;101831.91;3612206;39;20059;-65
2023/08/22 07:37:22;;;;;;;6.88;3.33;;;;;;;23.81;56.22;101828.50;3614066;39;20321;-65
2023/08/22 07:39:48;;;;;;;6.10;2.97;;;;;;;23.97;55.56;101820.41;3614326;39;20042;-65
2023/08/22 07:42:13;;;;;;;6.50;3.55;;;;;;;24.16;56.69;101830.34;3614322;39;20301;-65
2023/08/22 07:44:39;;;;;;;6.80;3.88;;;;;;;24.40;55.75;101823.34;3613457;39;20510;-64
2023/08/22 07:47:05;;;;;;;6.95;5.10;;;;;;;24.63;55.59;101829.19;3612527;39;20121;-65
2023/08/22 07:49:30;;;;;;;4.97;3.00;;;;;;;24.72;55.39;101809.81;3611691;39;20128;-65
2023/08/22 07:51:56;;;;;;;6.55;3.85;;;;;;;24.94;54.99;101819.38;3607198;39;20673;-65
2023/08/22 07:54:22;;;;;;;7.70;4.72;;;;;;;25.02;53.68;101822.19;3612673;39;20496;-65
2023/08/22 07:56:48;;;;;;;9.88;4.22;;;;;;;24.94;53.85;101824.88;3613409;39;20043;-65
2023/08/22 07:59:14;;;;;;;7.95;4.20;;;;;;;24.89;54.12;101834.66;3613767;39;20039;-65
2023/08/22 08:01:41;;;;;;;5.57;3.40;;;;;;;24.78;53.83;101825.66;3616211;39;20063;-65
2023/08/22 08:04:08;;;;;;;5.95;3.63;;;;;;;24.70;53.38;101827.50;3612165;39;20070;-65
2023/08/22 08:06:35;;;;;;;5.97;3.67;;;;;;;24.67;54.19;101828.69;3612725;39;20062;-64
2023/08/22 08:09:05;;;;;;;6.63;3.28;;;;;;;24.65;53.99;101836.25;3614963;39;20058;-64
2023/08/22 08:11:32;;;;;;;5.03;3.05;;;;;;;24.61;53.07;101832.09;3612593;39;20061;-65
2023/08/22 08:13:58;;;;;;;5.57;3.00;;;;;;;24.61;54.76;101836.72;3612508;39;20655;-65
2023/08/22 08:16:25;;;;;;;3.70;3.03;;;;;;;24.41;54.20;101805.81;3613681;39;20054;-65
2023/08/22 08:18:54;;;;;;;3.95;2.90;;;;;;;24.59;55.49;101847.03;3612481;39;20282;-64
2023/08/22 08:21:20;;;;;;;6.30;2.75;;;;;;;24.60;55.55;101835.84;3611805;39;20166;-64
2023/08/22 08:23:45;;;;;;;5.63;4.00;;;;;;;24.58;56.02;101840.69;3615305;39;20068;-64
2023/08/22 08:26:12;;;;;;;8.00;4.32;;;;;;;24.51;56.48;101834.06;3613629;39;20526;-64
2023/08/22 08:28:38;;;;;;;7.20;3.50;;;;;;;24.48;56.73;101829.75;3611275;39;20436;-65
2023/08/22 08:31:05;;;;;;;7.32;4.57;;;;;;;24.46;56.16;101848.31;3611842;39;20050;-65
2023/08/22 08:33:31;;;;;;;7.50;4.40;;;;;;;24.39;56.47;101855.47;3605989;39;20062;-65
2023/08/22 08:35:57;;;;;;;8.00;4.20;;;;;;;24.41;57.15;101858.03;3616061;39;20058;-65
2023/08/22 08:38:23;;;;;;;9.13;4.13;;;;;;;24.42;56.74;101840.53;3613592;39;20286;-65
2023/08/22 08:40:53;;;;;;;8.40;4.43;;;;;;;24.41;55.67;101849.78;3613637;39;20262;-65
2023/08/22 08:43:22;;;;;;;9.43;4.40;;;;;;;24.41;56.06;101849.78;3611586;39;20155;-65
2023/08/22 08:45:49;;;;;;;5.05;3.88;;;;;;;24.39;55.43;101857.31;3612585;39;20047;-65
2023/08/22 08:48:18;;;;;;;6.78;4.05;;;;;;;24.18;55.76;101814.59;3613886;39;20065;-65
2023/08/22 08:50:44;;;;;;;8.48;4.18;;;;;;;24.43;55.97;101837.66;3615558;39;20053;-65
2023/08/22 08:53:11;;;;;;;6.10;3.88;;;;;;;24.51;56.04;101834.94;3612542;39;20543;-66
2023/08/22 08:55:42;;;;;;;9.73;4.05;;;;;;;24.49;56.00;101816.91;3611177;39;20066;-65
2023/08/22 08:58:08;;;;;;;6.80;3.47;;;;;;;24.67;56.01;101839.69;3612036;39;20118;-65
2023/08/22 09:00:34;;;;;;;9.10;4.47;;;;;;;24.75;55.71;101841.63;3613604;39;20073;-66
2023/08/22 09:03:00;;;;;;;7.70;4.13;;;;;;;24.97;55.75;101845.69;3614187;39;20050;-65
2023/08/22 09:05:28;;;;;;;8.43;3.80;;;;;;;25.12;55.62;101844.09;3603701;39;20492;-65
2023/08/22 09:07:53;;;;;;;6.57;3.78;;;;;;;25.16;55.10;101841.88;3614667;39;20059;-66
2023/08/22 09:10:35;;;;;;;6.68;4.07;;;;;;;25.16;53.93;101845.47;3616771;39;20057;-65
2023/08/22 09:13:07;;;;;;;7.43;3.78;;;;;;;25.12;53.74;101837.66;3613415;39;20047;-65
2023/08/22 09:15:33;;;;;;;6.38;3.53;;;;;;;25.12;55.10;101841.34;3609001;39;20054;-65
2023/08/22 09:17:58;;;;;;;6.07;4.10;;;;;;;25.17;54.21;101840.81;3615898;39;20080;-65
2023/08/22 09:20:25;;;;;;;8.23;4.80;;;;;;;25.19;54.46;101845.16;3615236;39;20448;-65
2023/08/22 09:22:50;;;;;;;10.05;5.10;;;;;;;25.26;54.15;101848.09;3611544;39;20090;-65
2023/08/22 09:25:16;;;;;;;8.63;5.07;;;;;;;25.36;55.17;101845.19;3613828;39;20131;-65
2023/08/22 09:27:49;;;;;;;7.30;4.90;;;;;;;25.46;54.86;101852.28;3613543;39;20054;-65
2023/08/22 09:30:20;;;;;;;8.18;6.40;;;;;;;25.50;55.06;101847.31;3611075;39;20047;-65
2023/08/22 09:32:59;;;;;;;8.55;5.03;;;;;;;25.42;53.70;101847.28;3602852;39;20063;-65
2023/08/22 09:35:30;;;;;;;10.93;5.47;;;;;;;25.29;54.88;101849.66;3612596;39;20051;-65
2023/08/22 09:38:08;;;;;;;9.48;5.07;;;;;;;25.26;56.14;101839.84;3612059;39;20118;-66
2023/08/22 09:40:35;;;;;;;9.13;5.18;;;;;;;25.37;55.40;101841.41;3610018;39;20071;-66
2023/08/22 09:43:02;;;;;;;10.13;5.70;;;;;;;25.54;56.15;101840.44;3612758;39;20087;-65
2023/08/22 09:45:32;;;;;;;7.50;4.88;;;;;;;25.73;54.89;101846.69;3615750;39;20080;-66
2023/08/22 09:48:01;;;;;;;8.73;5.70;;;;;;;26.04;54.77;101849.66;3614406;39;20070;-66
2023/08/22 09:50:40;;;;;;;7.72;5.38;;;;;;;26.16;53.09;101853.78;3612699;39;20057;-65
2023/08/22 09:53:06;;;;;;;9.00;5.68;;;;;;;26.27;52.94;101845.19;3617850;39;20135;-66
2023/08/22 09:55:34;;;;;;;8.02;5.03;;;;;;;26.42;52.21;101856.38;3613613;39;20142;-65
2023/08/22 09:58:01;;;;;;;8.88;4.90;;;;;;;26.59;51.90;101854.50;3613981;39;20116;-66
2023/08/22 10:00:31;;;;;;;9.52;4.65;;;;;;;26.82;51.75;101857.34;3601788;39;20102;-66
2023/08/22 10:03:01;;;;;;;11.35;4.68;;;;;;;26.83;50.01;101859.06;3612990;39;20111;-65
2023/08/22 10:05:27;;;;;;;9.85;4.90;;;;;;;26.55;49.72;101831.91;3611398;39;20420;-66
2023/08/22 10:07:53;;;;;;;7.00;4.25;;;;;;;26.59;50.57;101860.00;3614881;39;20059;-66
2023/08/22 10:10:19;;;;;;;7.68;4.80;;;;;;;26.59;50.16;101860.88;3611964;39;20095;-65
2023/08/22 10:12:46;;;;;;;9.23;4.28;;;;;;;26.63;50.08;101853.94;3611664;39;20043;-66
2023/08/22 10:15:16;;;;;;;6.53;3.83;;;;;;;26.81;48.72;101850.13;3617773;39;20153;-65
2023/08/22 10:17:45;;;;;;;6.93;4.07;;;;;;;26.92;48.81;101849.72;3612038;39;20067;-66
2023/08/22 10:20:15;;;;;;;7.35;4.10;;;;;;;27.08;49.22;101833.13;3611322;39;20531;-66
2023/08/22 10:22:41;;;;;;;5.90;2.85;;;;;;;27.44;47.27;101838.16;3611971;39;20059;-66
2023/08/22 10:25:07;;;;;;;5.40;2.33;;;;;;;27.57;46.58;101843.09;3611295;39;20063;-66
2023/08/22 10:27:40;;;;;;;5.00;2.33;;;;;;;27.63;45.60;101847.91;3612320;39;20071;-66
2023/08/22 10:30:15;;;;;;;3.38;1.73;;;;;;;27.50;44.00;101859.53;3609262;39;20046;-65
2023/08/22 10:32:41;;;;;;;4.63;1.73;;;;;;;27.39;43.39;101851.63;3604138;39;20282;-66
2023/08/22 10:35:10;;;;;;;3.60;1.35;;;;;;;27.37;44.12;101852.84;3615837;39;20127;-65
2023/08/22 10:37:47;;;;;;;2.75;1.70;;;;;;;27.30;44.47;101844.44;3609813;39;20121;-65
2023/08/22 10:40:31;;;;;;;4.80;1.50;;;;;;;27.37;44.17;101842.69;3612467;39;20661;-64
2023/08/22 10:43:12;;;;;;;5.95;1.70;;;;;;;27.18;43.87;101788.78;3611792;39;20126;-66
2023/08/22 10:45:49;;;;;;;2.97;1.50;;;;;;;27.69;43.33;101838.88;3610322;39;20094;-65
2023/08/22 10:48:21;;;;;;;3.75;1.30;;;;;;;27.80;43.47;101840.38;3612042;39;20061;-65
2023/08/22 10:50:50;;;;;;;3.30;1.55;;;;;;;27.53;42.00;101772.69;3611533;39;20151;-65
2023/08/22 10:53:25;;;;;;;2.97;1.40;;;;;;;28.00;42.20;101838.84;3609387;39;20347;-64
2023/08/22 10:55:53;;;;;;;2.67;1.50;;;;;;;27.91;41.57;101851.00;3611207;39;20114;-65
2023/08/22 10:58:41;;;;;;;2.97;1.50;;;;;;;28.03;42.21;101845.91;3611595;39;21748;-65
2023/08/22 11:01:11;;;;;;;3.58;1.95;;;;;;;28.24;42.05;101839.69;3613977;39;20054;-65
2023/08/22 11:03:37;;;;;;;6.47;2.00;;;;;;;28.30;41.96;101841.69;3612133;39;20059;-66
2023/08/22 11:06:12;;;;;;;4.82;1.88;;;;;;;28.30;41.16;101843.59;3614474;39;20085;-65
2023/08/22 11:08:39;;;;;;;3.83;1.70;;;;;;;28.29;41.20;101844.63;3609551;39;20089;-65
2023/08/22 11:11:05;;;;;;;1.98;1.38;;;;;;;28.17;40.47;101838.72;3613261;39;20696;-65
2023/08/22 11:13:42;;;;;;;2.88;1.58;;;;;;;27.98;41.60;101829.88;3613374;39;20058;-65
2023/08/22 11:16:17;;;;;;;4.63;2.03;;;;;;;27.97;42.01;101843.88;3606397;39;20055;-65
2023/08/22 11:18:48;;;;;;;4.50;1.35;;;;;;;27.94;42.11;101839.59;3597233;39;20153;-65
2023/08/22 11:21:14;;;;;;;2.58;1.35;;;;;;;27.80;42.26;101820.19;3581176;40;20056;-65
2023/08/22 11:23:42;;;;;;;3.35;1.15;;;;;;;27.82;40.58;101830.00;3582704;40;20044;-66